Conchal, Brazil
Current Conditions -  °F | °C
As of 8:00 AM on Thursday 18 Dec 2014 (Local Time) from SBKP Reporting Station
Clear Clear  
Wind Chill: 72°   Ceiling: Unl
Heat Index: 72°   Visibility: 6mi
Dew Point: 63°   Wind: 12mph
Humidity: 73%   Direction: 100°E
Pressure: 29.91"   Gusts: NA
Location:  22.33°S, 47.17°W
Report Text: SBKP 181000Z 10010KT CAVOK 22/17 Q1013
Loading
Personal Weather Stations






























Interactive Weather Map New forecast layout! Learn more

10-Day Weather Forecast

Advertisements
Track Severe Weather on mobile